createdAt,value
2024-02-02T00:00:03.639Z,0.11900000000000001
2024-02-02T00:05:02.989Z,0.029
2024-02-02T00:10:03.244Z,0.003
2024-02-02T00:15:02.985Z,0.092
2024-02-02T00:20:03.041Z,0.016
2024-02-02T00:25:02.823Z,0
2024-02-02T00:30:02.893Z,0
2024-02-02T00:35:02.862Z,0.11800000000000001
2024-02-02T00:40:01.391Z,0.136
2024-02-02T00:45:01.429Z,0.132
2024-02-02T00:50:01.630Z,0.123
2024-02-02T00:55:01.281Z,0.115
2024-02-02T01:00:01.372Z,0.111
2024-02-02T01:05:01.473Z,0.064
2024-02-02T01:10:01.411Z,0.029
2024-02-02T01:15:01.439Z,0
2024-02-02T01:20:01.364Z,0
2024-02-02T01:25:01.375Z,0.001
2024-02-02T01:30:01.359Z,0.009000000000000001
2024-02-02T01:35:01.435Z,0.107
2024-02-02T01:40:01.401Z,0
2024-02-02T01:45:01.381Z,0.009000000000000001
2024-02-02T01:50:01.448Z,0.126
2024-02-02T01:55:01.401Z,0.098
2024-02-02T02:00:01.554Z,0.085
2024-02-02T02:05:01.430Z,0.145
2024-02-02T02:10:01.690Z,0.012
2024-02-02T02:15:01.612Z,0.027
2024-02-02T02:20:01.542Z,0.002
2024-02-02T02:25:01.443Z,0.002
2024-02-02T02:30:01.424Z,0.081
2024-02-02T02:35:01.488Z,0.12
2024-02-02T02:40:01.568Z,0.113
2024-02-02T02:45:01.540Z,0.106
2024-02-02T02:50:01.537Z,0.052000000000000005
2024-02-02T02:55:01.539Z,0.171
2024-02-02T03:00:01.635Z,0.14100000000000001
2024-02-02T03:05:01.530Z,0.002
2024-02-02T03:10:01.579Z,0.006
2024-02-02T03:15:01.697Z,0.001
2024-02-02T03:20:01.627Z,0
2024-02-02T03:25:01.437Z,0.036000000000000004
2024-02-02T03:30:01.605Z,0.12
2024-02-02T03:35:01.401Z,0.132
2024-02-02T03:40:01.682Z,0.06
2024-02-02T03:45:01.520Z,0.185
2024-02-02T03:50:01.485Z,0.184
2024-02-02T03:55:01.397Z,0.148
2024-02-02T04:00:01.418Z,0.073
2024-02-02T04:05:01.436Z,0
2024-02-02T04:10:01.507Z,0
2024-02-02T04:15:01.478Z,0
2024-02-02T04:20:01.440Z,0
2024-02-02T04:25:01.431Z,0
2024-02-02T04:30:01.503Z,0.023
2024-02-02T04:35:01.587Z,0.08700000000000001
2024-02-02T04:40:01.786Z,0.169
2024-02-02T04:45:01.597Z,0.125
2024-02-02T04:50:01.454Z,0.116
2024-02-02T04:55:01.452Z,0.11900000000000001
2024-02-02T05:00:01.577Z,0.116
2024-02-02T05:05:01.477Z,0.129
2024-02-02T05:10:01.591Z,0.128
2024-02-02T05:15:01.495Z,0.132
2024-02-02T05:20:01.515Z,0.043000000000000003
2024-02-02T05:25:01.532Z,0.007
2024-02-02T05:30:01.564Z,0
2024-02-02T05:35:01.582Z,0.003
2024-02-02T05:40:01.617Z,0.002
2024-02-02T05:45:01.679Z,0.062
2024-02-02T05:50:01.576Z,0.111
2024-02-02T05:55:01.491Z,0.111
2024-02-02T06:00:01.502Z,0.11
2024-02-02T06:05:01.629Z,0.134
2024-02-02T06:10:01.640Z,0.073
2024-02-02T06:15:01.550Z,0.1
2024-02-02T06:20:01.614Z,0.17200000000000001
2024-02-02T06:25:01.687Z,0.03
2024-02-02T06:30:01.657Z,0.003
2024-02-02T06:35:01.731Z,0.026000000000000002
2024-02-02T06:40:01.665Z,0.031
2024-02-02T06:45:01.737Z,0.032
2024-02-02T06:50:01.612Z,0.002
2024-02-02T06:55:01.561Z,0.05
2024-02-02T07:00:01.735Z,0.032
2024-02-02T07:05:01.618Z,0.048
2024-02-02T07:10:01.686Z,0.042
2024-02-02T07:15:01.684Z,0.052000000000000005
2024-02-02T07:20:01.866Z,0.047
2024-02-02T07:25:01.711Z,0.022
2024-02-02T07:30:01.756Z,0.035
2024-02-02T07:35:01.741Z,0.043000000000000003
2024-02-02T07:40:01.758Z,19.069
2024-02-02T07:45:01.800Z,78.893
2024-02-02T07:50:01.805Z,65.236
2024-02-02T07:55:01.772Z,84.678
2024-02-02T08:00:01.781Z,65.02
2024-02-02T08:05:01.809Z,79.315
2024-02-02T08:10:01.880Z,77.36
2024-02-02T08:15:01.768Z,68.748
2024-02-02T08:20:01.805Z,96.74000000000001
2024-02-02T08:25:01.775Z,157.26500000000001
2024-02-02T08:30:01.877Z,239.306
2024-02-02T08:35:01.870Z,208.05700000000002
2024-02-02T08:40:01.933Z,158.12
2024-02-02T08:45:01.974Z,142.93
2024-02-02T08:50:01.894Z,135.287
2024-02-02T08:55:01.896Z,234.046
2024-02-02T09:00:01.905Z,237.772
2024-02-02T09:05:01.861Z,250.687
2024-02-02T09:10:02.032Z,348.351
2024-02-02T09:15:01.966Z,394.427
2024-02-02T09:20:02.008Z,258.89
2024-02-02T09:25:01.696Z,189.05100000000002
2024-02-02T09:30:01.789Z,279.278
2024-02-02T09:35:01.702Z,265.559
2024-02-02T09:40:01.822Z,237.996
2024-02-02T09:45:01.851Z,178.089
2024-02-02T09:50:01.813Z,220.06900000000002
2024-02-02T09:55:01.784Z,282.748
2024-02-02T10:00:01.755Z,352.877
2024-02-02T10:05:01.712Z,337.052
2024-02-02T10:10:02.014Z,270.034
2024-02-02T10:15:04.337Z,284.704
2024-02-02T10:20:01.776Z,290.938
2024-02-02T10:25:01.821Z,229.666
2024-02-02T10:30:01.814Z,281.871
2024-02-02T10:35:01.811Z,244.202
2024-02-02T10:40:01.869Z,200.53300000000002
2024-02-02T10:45:02.024Z,238.546
2024-02-02T10:50:01.943Z,272.87600000000003
2024-02-02T10:55:01.797Z,202.708
2024-02-02T11:00:02.090Z,188.971
2024-02-02T11:05:01.808Z,192.94400000000002
2024-02-02T11:10:01.932Z,222.791
2024-02-02T11:15:01.998Z,194.365
2024-02-02T11:20:01.814Z,151.275
2024-02-02T11:25:01.792Z,176.796
2024-02-02T11:30:01.799Z,166.802
2024-02-02T11:35:01.800Z,201.466
2024-02-02T11:40:01.914Z,223.00300000000001
2024-02-02T11:45:01.835Z,196.567
2024-02-02T11:50:01.880Z,187.439
2024-02-02T11:55:01.869Z,192.98000000000002
2024-02-02T12:00:01.935Z,187.041
2024-02-02T12:05:01.928Z,160.612
2024-02-02T12:10:01.925Z,147.052
2024-02-02T12:15:01.917Z,144.16400000000002
2024-02-02T12:20:01.962Z,108.605
2024-02-02T12:25:01.877Z,140.886
2024-02-02T12:30:01.909Z,187.679
2024-02-02T12:35:01.979Z,200.964
2024-02-02T12:40:02.091Z,167.383
2024-02-02T12:45:02.091Z,93.983
2024-02-02T12:50:01.976Z,84.416
2024-02-02T12:55:01.945Z,95.413
2024-02-02T13:00:01.887Z,117.721
2024-02-02T13:05:02.107Z,82.566
2024-02-02T13:10:02.123Z,87.174
2024-02-02T13:15:02.100Z,70.129
2024-02-02T13:20:01.916Z,83.33500000000001
2024-02-02T13:25:01.907Z,125.681
2024-02-02T13:30:01.919Z,111.653
2024-02-02T13:35:02.132Z,92.348
2024-02-02T13:40:02.079Z,79.418
2024-02-02T13:45:02.216Z,87.682
2024-02-02T13:50:02.188Z,67.709
2024-02-02T13:55:02.047Z,83.66
2024-02-02T14:00:02.149Z,65.495
2024-02-02T14:05:02.108Z,76.794
2024-02-02T14:10:02.185Z,64.051
2024-02-02T14:15:02.179Z,79.941
2024-02-02T14:20:01.956Z,67.478
2024-02-02T14:25:01.974Z,80.787
2024-02-02T14:30:02.126Z,40.039
2024-02-02T14:40:02.313Z,0.12
2024-02-02T14:45:02.006Z,0.056
2024-02-02T14:50:01.982Z,0.041
2024-02-02T14:55:01.992Z,0.031
2024-02-02T15:00:02.072Z,0.028
2024-02-02T15:05:02.722Z,0.047
2024-02-02T15:10:02.102Z,0.332
2024-02-02T15:15:02.121Z,0.08700000000000001
2024-02-02T15:20:02.124Z,0.14200000000000002
2024-02-02T15:25:02.081Z,0.037
2024-02-02T15:30:02.188Z,0.038
2024-02-02T15:35:02.168Z,0.083
2024-02-02T15:40:02.560Z,0.296
2024-02-02T15:45:02.124Z,0.048
2024-02-02T15:50:02.275Z,0.097
2024-02-02T15:55:02.272Z,0.112
2024-02-02T16:00:02.213Z,0.111
2024-02-02T16:05:02.208Z,0.127
2024-02-02T16:10:02.211Z,0.357
2024-02-02T16:15:02.226Z,0.012
2024-02-02T16:20:02.119Z,0.098
2024-02-02T16:25:02.031Z,0.041
2024-02-02T16:30:02.140Z,0.046
2024-02-02T16:35:02.172Z,0.148
2024-02-02T16:40:02.115Z,0.123
2024-02-02T16:45:02.169Z,0.5710000000000001
2024-02-02T16:50:02.293Z,0.357
2024-02-02T16:55:02.042Z,0.422
2024-02-02T17:00:02.129Z,0.355
2024-02-02T17:05:02.181Z,0.013000000000000001
2024-02-02T17:10:02.205Z,0
2024-02-02T17:15:02.241Z,0.015
2024-02-02T17:20:03.371Z,0.064
2024-02-02T17:25:02.216Z,0.121
2024-02-02T17:30:02.291Z,0.107
2024-02-02T17:35:02.222Z,0.08600000000000001
2024-02-02T17:40:02.367Z,0.049
2024-02-02T17:45:02.208Z,0.008
2024-02-02T17:50:03.535Z,0.002
2024-02-02T17:55:02.195Z,0.004
2024-02-02T18:00:02.300Z,0.041
2024-02-02T18:05:02.235Z,0.009000000000000001
2024-02-02T18:10:02.354Z,0.007
2024-02-02T18:15:02.427Z,0.03
2024-02-02T18:20:02.329Z,0.07
2024-02-02T18:25:02.339Z,0.065
2024-02-02T18:30:02.193Z,0.082
2024-02-02T18:35:02.196Z,0.05
2024-02-02T18:40:02.370Z,0.058
2024-02-02T18:45:02.356Z,0.058
2024-02-02T18:50:02.222Z,0.117
2024-02-02T18:55:02.284Z,0.015
2024-02-02T19:00:02.260Z,0.147
2024-02-02T19:05:02.272Z,2.379
2024-02-02T19:10:02.306Z,2.202
2024-02-02T19:15:02.485Z,0
2024-02-02T19:20:02.258Z,0
2024-02-02T19:25:02.282Z,0
2024-02-02T19:30:04.304Z,0.275
2024-02-02T19:35:02.281Z,0.532
2024-02-02T19:40:02.405Z,0.586
2024-02-02T19:45:02.406Z,0.705
2024-02-02T19:50:02.622Z,0.674
2024-02-02T19:55:05.099Z,0.863
2024-02-02T20:00:02.388Z,0.763
2024-02-02T20:05:02.232Z,0.928
2024-02-02T20:10:02.534Z,0.503
2024-02-02T20:15:02.492Z,0.918
2024-02-02T20:20:02.475Z,0.447
2024-02-02T20:25:02.442Z,0.47600000000000003
2024-02-02T20:30:02.541Z,0.454
2024-02-02T20:35:02.563Z,0.579
2024-02-02T20:40:02.838Z,0.862
2024-02-02T20:45:04.492Z,0.333
2024-02-02T20:50:02.454Z,0.399
2024-02-02T20:55:02.282Z,0.398
2024-02-02T21:00:02.379Z,0.465
2024-02-02T21:05:02.362Z,0.506
2024-02-02T21:10:02.602Z,0.631
2024-02-02T21:15:02.596Z,0.555
2024-02-02T21:20:02.415Z,0.636
2024-02-02T21:25:02.325Z,0.644
2024-02-02T21:30:02.468Z,0.506
2024-02-02T21:35:02.650Z,0.402
2024-02-02T21:40:02.406Z,0.311
2024-02-02T21:45:02.348Z,0.635
2024-02-02T21:50:02.682Z,0.352
2024-02-02T21:55:02.380Z,0
2024-02-02T22:00:02.377Z,0.28800000000000003
2024-02-02T22:05:02.349Z,0.708
2024-02-02T22:10:02.439Z,0.733
2024-02-02T22:15:02.469Z,0.791
2024-02-02T22:20:02.456Z,0.74
2024-02-02T22:25:02.631Z,0.772
2024-02-02T22:30:02.466Z,0.14400000000000002
2024-02-02T22:35:02.701Z,0.099
2024-02-02T22:40:02.686Z,0.109
2024-02-02T22:45:02.458Z,0.105
2024-02-02T22:50:02.522Z,0.026000000000000002
2024-02-02T22:55:02.361Z,0.002
2024-02-02T23:00:05.629Z,0.002
2024-02-02T23:05:02.548Z,0.008
2024-02-02T23:10:02.430Z,0
2024-02-02T23:15:02.408Z,0.006
2024-02-02T23:20:02.457Z,0
2024-02-02T23:25:02.377Z,0
2024-02-02T23:30:02.401Z,0
2024-02-02T23:35:02.533Z,0
2024-02-02T23:40:02.533Z,0
2024-02-02T23:45:02.486Z,0
2024-02-02T23:50:02.596Z,0.009000000000000001
2024-02-02T23:55:02.398Z,0.03
